Terminal Aerodrome Forecast
Issued by NWS Cleveland, OH

Home | Current Version | Previous Version | Graphics & Text | Print | Product List | Glossary On
Versions: 1 2 3 4 5 6 7 8 9 10 11 12 13 14 15
074
FTUS41 KCLE 082331
TAFYNG
TAF
KYNG 082331Z 0900/0924 26012G20KT 6SM -SN SCT020 OVC035
      TEMPO 0900/0903 3SM -SN OVC025
     FM090300 27012G20KT 3SM -SHSN SCT008 OVC010
      TEMPO 0903/0907 1 1/2SM -SN
     FM091200 27012G20KT 2SM -SHSN OVC008
     FM091800 27012G20KT 3SM -SN OVC010=

USA.gov is the U.S. government's official web portal to all federal, state and local government web resources and services.